Terminal Aerodrome Forecast
Issued by NWS

Home | Current Version | Previous Version | Text Only | Print | Product List | Glossary On
Versions: 1 2 3 4 5 6 7 8 9 10 11 12 13 14 15
000
FTUS44 KLZK 301400 AAA
TAFHRO
TAF AMD
KHRO 301428Z 3014/3112 15008KT P6SM VCSH SCT040 BKN100
      TEMPO 3014/3017 SCT015 BKN025
     FM301700 17006KT P6SM FEW060 FEW120
     FM310000 15004KT P6SM SCT250=

USA.gov is the U.S. government's official web portal to all federal, state and local government web resources and services.